Time;durP1;ratioP1;P1;durP2;ratioP2;P2;SDS_P1;SDS_P2;PMS_P1;PMS_P2;Temp;Humidity;BMP_temperature;BMP_pressure;BME280_temperature;BME280_humidity;BME280_pressure;Samples;Min_cycle;Max_cycle;Signal;HPM_P1;HPM_P2
2022/02/27 00:01:20;;;;;;;;;;;;;;;20.89;35.21;102360.19;7277711;19;153724;-53
2022/02/27 00:03:47;;;;;;;;;;;;;;;20.86;35.24;102361.56;7276339;19;153275;-53
2022/02/27 00:06:14;;;;;;;;;;;;;;;20.84;35.18;102358.19;7278936;19;152053;-53
2022/02/27 00:08:41;;;;;;;;;;;;;;;20.81;35.62;102361.53;7277461;19;153774;-53
2022/02/27 00:11:09;;;;;;;;;;;;;;;20.79;35.21;102360.16;7283140;19;153426;-53
2022/02/27 00:13:36;;;;;;;;;;;;;;;20.75;35.65;102359.00;7278011;19;153076;-54
2022/02/27 00:16:03;;;;;;;;;;;;;;;20.73;35.28;102356.47;7277551;19;154693;-53
2022/02/27 00:18:30;;;;;;;;;;;;;;;20.71;35.55;102352.25;7277882;19;152095;-53
2022/02/27 00:20:57;;;;;;;;;;;;;;;20.68;35.30;102356.44;7275159;19;155606;-52
2022/02/27 00:23:24;;;;;;;;;;;;;;;20.67;35.45;102351.94;7276078;19;154200;-53
2022/02/27 00:25:51;;;;;;;;;;;;;;;20.64;35.34;102348.84;7278882;19;152476;-52
2022/02/27 00:28:18;;;;;;;;;;;;;;;20.61;35.56;102347.44;7273983;19;152698;-52
2022/02/27 00:30:45;;;;;;;;;;;;;;;20.58;35.31;102345.16;7270139;19;154312;-52
2022/02/27 00:33:12;;;;;;;;;;;;;;;20.58;35.44;102338.72;7279787;19;153213;-52
2022/02/27 00:35:39;;;;;;;;;;;;;;;20.56;35.58;102335.34;7275934;19;154278;-53
2022/02/27 00:38:07;;;;;;;;;;;;;;;20.54;35.54;102332.78;7278082;19;151904;-53
2022/02/27 00:40:34;;;;;;;;;;;;;;;20.51;35.64;102327.75;7277843;19;152835;-52
2022/02/27 00:43:01;;;;;;;;;;;;;;;20.49;35.34;102335.59;7276334;19;153375;-53
2022/02/27 00:45:28;;;;;;;;;;;;;;;20.46;35.25;102327.72;7277485;19;152199;-53
2022/02/27 00:47:55;;;;;;;;;;;;;;;20.46;35.79;102326.88;7274173;19;153674;-53
2022/02/27 00:50:22;;;;;;;;;;;;;;;20.45;35.72;102323.22;7274616;19;154507;-52
2022/02/27 00:52:49;;;;;;;;;;;;;;;20.46;35.55;102324.91;7276397;19;152063;-53
2022/02/27 00:55:17;;;;;;;;;;;;;;;20.48;35.65;102325.50;7282749;19;153963;-53
2022/02/27 00:57:43;;;;;;;;;;;;;;;20.52;35.62;102314.56;7278227;19;152043;-53
2022/02/27 01:00:11;;;;;;;;;;;;;;;20.55;35.63;102316.78;7273735;19;153932;-53
2022/02/27 01:02:38;;;;;;;;;;;;;;;20.57;35.68;102321.03;7276027;19;155329;-52
2022/02/27 01:05:05;;;;;;;;;;;;;;;20.58;35.55;102317.09;7277866;19;152179;-53
2022/02/27 01:07:32;;;;;;;;;;;;;;;20.59;35.69;102315.13;7273446;19;155106;-53
2022/02/27 01:10:10;;;;;;;;;;;;;;;20.59;35.14;102315.97;7276536;19;153353;-54
2022/02/27 01:12:51;;;;;;;;;;;;;;;20.65;35.76;102314.88;7277656;19;151848;-53
2022/02/27 01:15:18;;;;;;;;;;;;;;;20.69;35.62;102317.97;7263830;19;153447;-53
2022/02/27 01:17:50;;;;;;;;;;;;;;;20.70;35.67;102316.84;7279969;19;155283;-52
2022/02/27 01:20:19;;;;;;;;;;;;;;;20.72;35.64;102325.84;7269457;19;152862;-52
2022/02/27 01:22:46;;;;;;;;;;;;;;;20.72;35.66;102320.22;7272149;19;154266;-53
2022/02/27 01:25:14;;;;;;;;;;;;;;;20.74;35.52;102324.44;7273256;19;152096;-53
2022/02/27 01:27:41;;;;;;;;;;;;;;;20.75;35.38;102322.50;7277226;19;152623;-53
2022/02/27 01:30:13;;;;;;;;;;;;;;;20.74;35.65;102316.03;7275015;19;152521;-55
2022/02/27 01:32:41;;;;;;;;;;;;;;;20.76;35.67;102315.72;7272738;19;151968;-55
2022/02/27 01:35:09;;;;;;;;;;;;;;;20.76;35.28;102315.72;7273765;19;153027;-54
2022/02/27 01:37:37;;;;;;;;;;;;;;;20.76;35.57;102315.72;7275783;19;153428;-55
2022/02/27 01:40:05;;;;;;;;;;;;;;;20.76;35.43;102312.91;7289167;19;152057;-55
2022/02/27 01:42:32;;;;;;;;;;;;;;;20.75;35.33;102309.28;7278264;19;152442;-55
2022/02/27 01:45:01;;;;;;;;;;;;;;;20.74;35.54;102307.59;7282427;19;152131;-52
2022/02/27 01:47:28;;;;;;;;;;;;;;;20.72;35.61;102309.81;7283587;19;153532;-52
2022/02/27 01:49:55;;;;;;;;;;;;;;;20.71;35.09;102308.16;7282035;19;153962;-52
2022/02/27 01:52:22;;;;;;;;;;;;;;;20.70;35.46;102305.63;7282008;19;151601;-53
2022/02/27 01:54:49;;;;;;;;;;;;;;;20.68;35.13;102308.69;7283617;19;153263;-52
2022/02/27 01:57:16;;;;;;;;;;;;;;;20.68;35.15;102307.84;7278172;19;154131;-52
2022/02/27 01:59:43;;;;;;;;;;;;;;;20.66;35.41;102304.50;7289737;19;151895;-52
2022/02/27 02:02:20;;;;;;;;;;;;;;;20.64;35.40;102295.47;7278159;19;154952;-52
2022/02/27 02:05:01;;;;;;;;;;;;;;;20.62;35.58;102294.94;7283648;19;153188;-52
2022/02/27 02:07:27;;;;;;;;;;;;;;;20.60;35.41;102300.81;7281519;19;152798;-53
2022/02/27 02:09:54;;;;;;;;;;;;;;;20.58;35.50;102299.41;7279697;19;153500;-53
2022/02/27 02:12:21;;;;;;;;;;;;;;;20.56;35.51;102304.44;7281103;19;152520;-52
2022/02/27 02:14:48;;;;;;;;;;;;;;;20.54;35.45;102307.53;7283311;19;153235;-52
2022/02/27 02:17:15;;;;;;;;;;;;;;;20.51;35.06;102310.91;7277735;19;154048;-53
2022/02/27 02:19:42;;;;;;;;;;;;;;;20.51;35.17;102313.69;7282008;19;152025;-53
2022/02/27 02:22:18;;;;;;;;;;;;;;;20.49;35.40;102310.31;7285023;19;153005;-52
2022/02/27 02:24:55;;;;;;;;;;;;;;;20.47;35.45;102321.00;7280884;19;152079;-53
2022/02/27 02:27:22;;;;;;;;;;;;;;;20.46;34.93;102324.06;7279987;19;153273;-52
2022/02/27 02:29:49;;;;;;;;;;;;;;;20.43;35.37;102317.03;7280432;19;153570;-52
2022/02/27 02:32:21;;;;;;;;;;;;;;;20.41;35.26;102314.50;7279266;19;152160;-53
2022/02/27 02:34:48;;;;;;;;;;;;;;;20.39;35.36;102316.75;7275151;19;152106;-52
2022/02/27 02:37:15;;;;;;;;;;;;;;;20.36;35.32;102319.25;7280170;19;154196;-52
2022/02/27 02:39:42;;;;;;;;;;;;;;;20.34;35.43;102325.16;7281370;19;151948;-52
2022/02/27 02:42:09;;;;;;;;;;;;;;;20.32;35.34;102320.91;7280792;19;152775;-53
2022/02/27 02:44:39;;;;;;;;;;;;;;;20.30;35.05;102311.94;7278117;19;154258;-53
2022/02/27 02:47:06;;;;;;;;;;;;;;;20.25;35.18;102314.69;7278553;19;153322;-52
2022/02/27 02:49:32;;;;;;;;;;;;;;;20.24;35.69;102311.03;7274892;19;152233;-53
2022/02/27 02:51:59;;;;;;;;;;;;;;;20.22;35.31;102306.78;7279153;19;152070;-55
2022/02/27 02:54:26;;;;;;;;;;;;;;;20.19;35.77;102310.16;7280133;19;152982;-53
2022/02/27 02:56:53;;;;;;;;;;;;;;;20.15;35.73;102300.59;7276582;19;156207;-52
2022/02/27 02:59:23;;;;;;;;;;;;;;;20.14;35.75;102301.72;7280729;19;151673;-55
2022/02/27 03:01:52;;;;;;;;;;;;;;;20.12;35.53;102306.75;7279649;19;153775;-54
2022/02/27 03:04:37;;;;;;;;;;;;;;;20.06;35.81;102300.28;7279860;19;152202;-53
2022/02/27 03:07:04;;;;;;;;;;;;;;;20.02;35.74;102298.28;7288862;19;151772;-51
2022/02/27 03:09:35;;;;;;;;;;;;;;;19.98;35.83;102298.00;7278081;19;153817;-52
2022/02/27 03:12:05;;;;;;;;;;;;;;;19.95;36.06;102301.31;7278521;19;151689;-55
2022/02/27 03:14:32;;;;;;;;;;;;;;;19.90;36.42;102290.91;7279444;19;152905;-55
2022/02/27 03:16:59;;;;;;;;;;;;;;;19.87;36.08;102288.66;7279227;19;153977;-55
2022/02/27 03:19:26;;;;;;;;;;;;;;;19.87;36.24;102288.66;7278473;19;151922;-55
2022/02/27 03:21:53;;;;;;;;;;;;;;;19.83;36.58;102281.91;7278709;19;153198;-55
2022/02/27 03:24:20;;;;;;;;;;;;;;;19.80;36.34;102285.28;7277964;19;154128;-55
2022/02/27 03:26:47;;;;;;;;;;;;;;;19.76;36.50;102284.09;7278749;19;152209;-55
2022/02/27 03:29:13;;;;;;;;;;;;;;;19.75;36.53;102292.78;7285939;19;152836;-55
2022/02/27 03:31:40;;;;;;;;;;;;;;;19.73;36.64;102298.66;7279321;19;151730;-55
2022/02/27 03:34:09;;;;;;;;;;;;;;;19.70;36.80;102298.38;7275513;19;153701;-55
2022/02/27 03:36:36;;;;;;;;;;;;;;;19.70;36.73;102295.56;7272710;19;154186;-55
2022/02/27 03:39:03;;;;;;;;;;;;;;;19.67;36.74;102293.31;7279408;19;152041;-52
2022/02/27 03:41:30;;;;;;;;;;;;;;;19.62;37.17;102294.13;7276302;19;152868;-53
2022/02/27 03:43:56;;;;;;;;;;;;;;;19.61;37.29;102285.97;7276060;19;153975;-53
2022/02/27 03:46:24;;;;;;;;;;;;;;;19.59;36.97;102285.38;7279354;19;151630;-52
2022/02/27 03:48:51;;;;;;;;;;;;;;;19.58;37.26;102275.31;7278912;19;152796;-52
2022/02/27 03:51:18;;;;;;;;;;;;;;;19.56;37.02;102271.91;7282246;19;153617;-54
2022/02/27 03:53:45;;;;;;;;;;;;;;;19.53;36.95;102267.69;7277826;19;153908;-54
2022/02/27 03:56:12;;;;;;;;;;;;;;;19.52;37.43;102266.00;7277848;19;155167;-54
2022/02/27 03:58:38;;;;;;;;;;;;;;;19.50;37.21;102266.25;7279855;19;151893;-54
2022/02/27 04:01:05;;;;;;;;;;;;;;;19.46;37.58;102255.84;7278070;19;153494;-54
2022/02/27 04:03:32;;;;;;;;;;;;;;;19.45;37.21;102263.41;7273013;19;153221;-52
2022/02/27 04:05:59;;;;;;;;;;;;;;;19.43;37.61;102256.38;7277653;19;151639;-54
2022/02/27 04:08:27;;;;;;;;;;;;;;;19.40;37.59;102260.53;7278399;19;153358;-53
2022/02/27 04:10:53;;;;;;;;;;;;;;;19.38;37.89;102267.53;7282769;19;154172;-54
2022/02/27 04:13:20;;;;;;;;;;;;;;;19.37;37.63;102269.50;7278754;19;152899;-53
2022/02/27 04:15:47;;;;;;;;;;;;;;;19.35;37.90;102276.50;7278373;19;154058;-53
2022/02/27 04:18:14;;;;;;;;;;;;;;;19.33;37.75;102273.09;7278143;19;151875;-54
2022/02/27 04:20:41;;;;;;;;;;;;;;;19.31;37.90;102266.91;7277586;19;152963;-53
2022/02/27 04:23:08;;;;;;;;;;;;;;;19.32;38.05;102263.84;7273788;19;152440;-54
2022/02/27 04:25:35;;;;;;;;;;;;;;;19.28;38.02;102261.84;7278185;19;151930;-53
2022/02/27 04:28:02;;;;;;;;;;;;;;;19.27;37.78;102257.34;7277734;19;153525;-53
2022/02/27 04:30:29;;;;;;;;;;;;;;;19.26;37.86;102252.88;7276019;19;153874;-54
2022/02/27 04:33:10;;;;;;;;;;;;;;;19.25;37.97;102270.81;7285745;19;151862;-54
2022/02/27 04:36:02;;;;;;;;;;;;;;;19.23;38.07;102264.59;7270544;19;152790;-53
2022/02/27 04:38:29;;;;;;;;;;;;;;;19.24;38.08;102269.97;7277775;19;152779;-53
2022/02/27 04:40:55;;;;;;;;;;;;;;;19.22;37.95;102277.78;7278754;19;152926;-53
2022/02/27 04:43:22;;;;;;;;;;;;;;;19.18;38.45;102273.81;7272827;19;153996;-52
2022/02/27 04:45:50;;;;;;;;;;;;;;;19.17;38.32;102269.31;7277415;19;151876;-53
2022/02/27 04:48:17;;;;;;;;;;;;;;;19.15;38.22;102270.72;7276238;19;153336;-52
2022/02/27 04:50:48;;;;;;;;;;;;;;;19.14;38.56;102269.00;7271580;19;153464;-52
2022/02/27 04:53:20;;;;;;;;;;;;;;;19.12;38.26;102274.06;7277831;19;151654;-53
2022/02/27 04:55:47;;;;;;;;;;;;;;;19.10;38.16;102277.13;7282674;19;153708;-53
2022/02/27 04:58:14;;;;;;;;;;;;;;;19.08;38.42;102268.13;7276471;19;151812;-53
2022/02/27 05:00:41;;;;;;;;;;;;;;;19.06;38.22;102271.19;7276245;19;152464;-53
2022/02/27 05:03:08;;;;;;;;;;;;;;;19.05;38.21;102266.72;7273976;19;154535;-53
2022/02/27 05:05:36;;;;;;;;;;;;;;;19.04;38.43;102264.16;7275710;19;152284;-53
2022/02/27 05:08:03;;;;;;;;;;;;;;;19.01;38.63;102268.34;7276396;19;153230;-53
2022/02/27 05:10:31;;;;;;;;;;;;;;;18.99;38.71;102270.56;7275999;19;154181;-53
2022/02/27 05:12:58;;;;;;;;;;;;;;;18.97;38.47;102261.59;7276637;19;152241;-53
2022/02/27 05:15:25;;;;;;;;;;;;;;;18.95;38.48;102262.94;7282649;19;153725;-52
2022/02/27 05:17:52;;;;;;;;;;;;;;;18.94;38.91;102266.91;7289366;19;152355;-53
2022/02/27 05:20:19;;;;;;;;;;;;;;;18.92;39.04;102264.34;7283373;19;152374;-53
2022/02/27 05:22:46;;;;;;;;;;;;;;;18.89;39.00;102255.63;7281184;19;154339;-53
2022/02/27 05:25:18;;;;;;;;;;;;;;;18.89;38.99;102250.03;7280280;19;152103;-52
2022/02/27 05:27:49;;;;;;;;;;;;;;;18.84;38.96;102242.44;7283562;19;153568;-52
2022/02/27 05:30:16;;;;;;;;;;;;;;;18.85;38.71;102248.88;7282235;19;153783;-54
2022/02/27 05:32:44;;;;;;;;;;;;;;;18.82;38.88;102241.84;7280835;19;151775;-52
2022/02/27 05:35:11;;;;;;;;;;;;;;;18.82;38.80;102233.44;7280823;19;153009;-52
2022/02/27 05:37:38;;;;;;;;;;;;;;;18.79;39.07;102238.72;7277440;19;153841;-53
2022/02/27 05:40:08;;;;;;;;;;;;;;;18.76;38.87;102222.47;7288979;19;151866;-52
2022/02/27 05:42:40;;;;;;;;;;;;;;;18.76;39.16;102236.47;7280595;19;153373;-53
2022/02/27 05:45:20;;;;;;;;;;;;;;;18.74;39.13;102235.88;7283347;19;152473;-53
2022/02/27 05:48:10;;;;;;;;;;;;;;;18.71;38.80;102240.06;7279982;19;152465;-53
2022/02/27 05:50:37;;;;;;;;;;;;;;;18.69;39.18;102242.28;7282176;19;153539;-52
2022/02/27 05:53:04;;;;;;;;;;;;;;;18.68;39.19;102232.19;7283308;19;152092;-53
2022/02/27 05:55:31;;;;;;;;;;;;;;;18.66;38.88;102240.00;7282968;19;151842;-53
2022/02/27 05:57:59;;;;;;;;;;;;;;;18.63;39.46;102235.78;7280662;19;153415;-53
2022/02/27 06:00:27;;;;;;;;;;;;;;;18.63;39.44;102238.56;7280478;19;152141;-52
2022/02/27 06:02:54;;;;;;;;;;;;;;;18.61;39.26;102229.59;7286858;19;153488;-53
2022/02/27 06:05:21;;;;;;;;;;;;;;;18.60;39.17;102238.25;7281660;19;152588;-52
2022/02/27 06:07:52;;;;;;;;;;;;;;;18.58;39.61;102243.25;7281958;19;153148;-54
2022/02/27 06:10:36;;;;;;;;;;;;;;;18.57;39.31;102244.41;7279830;19;152931;-52
2022/02/27 06:13:03;;;;;;;;;;;;;;;18.54;39.42;102240.16;7281696;19;152007;-52
2022/02/27 06:15:30;;;;;;;;;;;;;;;18.53;39.23;102230.06;7282442;19;154593;-53
2022/02/27 06:17:57;;;;;;;;;;;;;;;18.52;39.26;102222.75;7281843;19;153819;-52
2022/02/27 06:20:24;;;;;;;;;;;;;;;18.50;39.33;102232.50;7283068;19;152115;-53
2022/02/27 06:22:52;;;;;;;;;;;;;;;18.48;39.25;102230.00;7289551;19;153445;-52
2022/02/27 06:25:19;;;;;;;;;;;;;;;18.47;39.49;102242.28;7280526;19;151896;-53
2022/02/27 06:27:47;;;;;;;;;;;;;;;18.47;39.40;102253.50;7283909;19;153283;-53
2022/02/27 06:30:18;;;;;;;;;;;;;;;18.46;39.50;102250.94;7281298;19;153463;-53
2022/02/27 06:32:47;;;;;;;;;;;;;;;18.44;39.51;102256.78;7280718;19;152126;-53
2022/02/27 06:35:15;;;;;;;;;;;;;;;18.42;39.60;102244.19;7282588;19;152683;-53
2022/02/27 06:37:42;;;;;;;;;;;;;;;18.40;39.80;102246.38;7281079;19;154587;-53
2022/02/27 06:40:14;;;;;;;;;;;;;;;18.47;40.17;102247.91;7280917;19;151980;-53
2022/02/27 06:42:55;;;;;;;;;;;;;;;18.49;40.16;102244.81;7282384;19;153605;-53
2022/02/27 06:45:23;;;;;;;;;;;;;;;18.53;40.19;102249.66;7288388;19;153454;-52
2022/02/27 06:47:50;;;;;;;;;;;;;;;18.55;40.27;102244.66;7280081;19;153058;-53
2022/02/27 06:50:16;;;;;;;;;;;;;;;18.58;40.44;102255.31;7276093;19;153831;-53
2022/02/27 06:52:43;;;;;;;;;;;;;;;18.62;40.52;102253.66;7282162;19;152328;-54
2022/02/27 06:55:29;;;;;;;;;;;;;;;18.66;40.67;102248.41;7281766;19;152968;-53
2022/02/27 06:57:56;;;;;;;;;;;;;;;18.74;41.06;102238.69;7279002;19;153565;-53
2022/02/27 07:00:22;;;;;;;;;;;;;;;18.79;40.71;102242.38;7281946;19;151813;-53
2022/02/27 07:02:50;;;;;;;;;;;;;;;18.85;40.61;102229.28;7282266;19;153131;-53
2022/02/27 07:05:17;;;;;;;;;;;;;;;18.90;40.49;102229.31;7278792;19;155346;-53
2022/02/27 07:07:44;;;;;;;;;;;;;;;18.95;40.81;102230.19;7288190;19;152331;-53
2022/02/27 07:10:12;;;;;;;;;;;;;;;19.02;41.27;102238.38;7277199;19;153618;-53
2022/02/27 07:12:39;;;;;;;;;;;;;;;19.07;41.11;102246.84;7279690;19;151646;-53
2022/02/27 07:15:06;;;;;;;;;;;;;;;19.13;40.97;102251.34;7282208;19;153702;-52
2022/02/27 07:17:33;;;;;;;;;;;;;;;19.19;40.72;102247.50;7279556;19;156081;-53
2022/02/27 07:20:00;;;;;;;;;;;;;;;19.24;40.75;102238.28;7281723;19;152226;-53
2022/02/27 07:22:28;;;;;;;;;;;;;;;19.30;40.67;102237.22;7280323;19;153749;-53
2022/02/27 07:24:55;;;;;;;;;;;;;;;19.36;40.91;102222.97;7280528;19;153602;-53
2022/02/27 07:27:23;;;;;;;;;;;;;;;19.41;40.52;102217.41;7281281;19;151872;-53
2022/02/27 07:29:50;;;;;;;;;;;;;;;19.46;40.34;102219.41;7288635;19;153505;-53
2022/02/27 07:32:18;;;;;;;;;;;;;;;19.53;40.38;102225.66;7278357;19;152556;-53
2022/02/27 07:34:45;;;;;;;;;;;;;;;19.58;40.55;102238.84;7280047;19;153534;-53
2022/02/27 07:37:12;;;;;;;;;;;;;;;19.64;40.24;102234.94;7277583;19;155857;-53
2022/02/27 07:39:39;;;;;;;;;;;;;;;19.69;40.35;102230.22;7280139;19;151770;-53
2022/02/27 07:42:06;;;;;;;;;;;;;;;19.73;40.17;102228.56;7278095;19;153678;-53
2022/02/27 07:44:33;;;;;;;;;;;;;;;19.79;40.39;102233.09;7277254;19;153454;-53
2022/02/27 07:47:01;;;;;;;;;;;;;;;19.83;40.12;102223.00;7281973;19;151661;-53
2022/02/27 07:49:28;;;;;;;;;;;;;;;19.89;39.84;102221.09;7278223;19;152732;-53
2022/02/27 07:51:55;;;;;;;;;;;;;;;19.93;39.77;102209.03;7286031;19;154574;-53
2022/02/27 07:54:25;;;;;;;;;;;;;;;19.98;39.95;102217.50;7279608;19;153280;-53
2022/02/27 07:56:52;;;;;;;;;;;;;;;20.04;39.96;102225.91;7279889;19;153910;-54
2022/02/27 07:59:19;;;;;;;;;;;;;;;20.08;39.69;102219.47;7279079;19;151769;-52
2022/02/27 08:01:46;;;;;;;;;;;;;;;20.13;39.84;102221.44;7280493;19;153442;-53
2022/02/27 08:04:14;;;;;;;;;;;;;;;20.17;39.78;102226.22;7277764;19;154050;-54
2022/02/27 08:06:42;;;;;;;;;;;;;;;20.21;39.79;102233.00;7281493;19;152325;-52
2022/02/27 08:09:10;;;;;;;;;;;;;;;20.26;39.53;102233.00;7277034;19;153423;-52
2022/02/27 08:11:37;;;;;;;;;;;;;;;20.30;39.54;102237.00;7277742;19;153019;-53
2022/02/27 08:14:09;;;;;;;;;;;;;;;20.34;39.53;102240.09;7286317;19;151668;-52
2022/02/27 08:16:36;;;;;;;;;;;;;;;20.36;39.49;102233.06;7275519;19;153814;-52
2022/02/27 08:19:03;;;;;;;;;;;;;;;20.39;39.18;102234.50;7280875;19;151669;-53
2022/02/27 08:21:32;;;;;;;;;;;;;;;20.42;39.54;102233.94;7280010;19;153271;-53
2022/02/27 08:23:59;;;;;;;;;;;;;;;20.46;39.37;102234.22;7277573;19;153245;-53
2022/02/27 08:26:27;;;;;;;;;;;;;;;20.46;39.19;102229.44;7277275;19;151801;-53
2022/02/27 08:28:54;;;;;;;;;;;;;;;20.49;39.31;102230.88;7278471;19;152140;-53
2022/02/27 08:31:21;;;;;;;;;;;;;;;20.49;39.34;102234.50;7279400;19;153422;-53
2022/02/27 08:33:48;;;;;;;;;;;;;;;20.50;39.06;102239.00;7287375;19;151756;-53
2022/02/27 08:36:17;;;;;;;;;;;;;;;20.51;39.21;102234.25;7274608;19;154213;-54
2022/02/27 08:38:47;;;;;;;;;;;;;;;20.52;39.51;102230.31;7278314;19;152129;-53
2022/02/27 08:41:14;;;;;;;;;;;;;;;20.51;39.18;102229.47;7277599;19;154153;-52
2022/02/27 08:43:41;;;;;;;;;;;;;;;20.53;39.11;102232.84;7275568;19;154641;-53
2022/02/27 08:46:09;;;;;;;;;;;;;;;20.54;39.04;102225.25;7276612;19;152055;-53
2022/02/27 08:48:36;;;;;;;;;;;;;;;20.53;39.45;102221.63;7282385;19;153122;-53
2022/02/27 08:51:03;;;;;;;;;;;;;;;20.53;38.89;102224.44;7282994;19;153446;-53
2022/02/27 08:53:30;;;;;;;;;;;;;;;20.55;38.74;102221.31;7285276;19;152231;-53
2022/02/27 08:55:57;;;;;;;;;;;;;;;20.54;38.98;102217.66;7291105;19;153153;-53
2022/02/27 08:58:24;;;;;;;;;;;;;;;20.53;38.90;102220.78;7285602;19;152558;-53
2022/02/27 09:00:51;;;;;;;;;;;;;;;20.50;38.76;102216.53;7284249;19;153043;-52
2022/02/27 09:03:24;;;;;;;;;;;;;;;20.50;38.74;102212.88;7281513;19;156408;-53
2022/02/27 09:05:51;;;;;;;;;;;;;;;20.48;38.63;102218.81;7284611;19;151521;-53
2022/02/27 09:08:19;;;;;;;;;;;;;;;20.48;38.56;102220.75;7285834;19;153732;-53
2022/02/27 09:10:46;;;;;;;;;;;;;;;20.48;38.48;102215.16;7281522;19;153789;-54
2022/02/27 09:13:13;;;;;;;;;;;;;;;20.46;38.49;102215.41;7282673;19;152166;-53
2022/02/27 09:15:40;;;;;;;;;;;;;;;20.46;38.69;102217.38;7283993;19;153727;-53
2022/02/27 09:18:11;;;;;;;;;;;;;;;20.45;38.33;102224.94;7290752;19;154262;-53
2022/02/27 09:20:38;;;;;;;;;;;;;;;20.43;38.40;102215.97;7285870;19;153069;-53
2022/02/27 09:23:05;;;;;;;;;;;;;;;20.44;38.27;102222.44;7284156;19;154156;-53
2022/02/27 09:25:32;;;;;;;;;;;;;;;20.40;38.26;102211.75;7281431;19;151991;-53
2022/02/27 09:28:19;;;;;;;;;;;;;;;20.39;38.25;102218.50;7285230;19;155302;-52
2022/02/27 09:30:46;;;;;;;;;;;;;;;20.37;38.33;102223.53;7282425;19;156397;-53
2022/02/27 09:33:14;;;;;;;;;;;;;;;20.35;38.32;102222.16;7283689;19;152013;-53
2022/02/27 09:35:41;;;;;;;;;;;;;;;20.34;38.15;102217.63;7283054;19;152837;-54
2022/02/27 09:38:08;;;;;;;;;;;;;;;20.29;38.14;102226.84;7283589;19;153511;-53
2022/02/27 09:40:36;;;;;;;;;;;;;;;20.29;38.25;102223.19;7293000;19;152061;-53
2022/02/27 09:43:03;;;;;;;;;;;;;;;20.26;38.49;102232.19;7281231;19;153974;-53
2022/02/27 09:45:31;;;;;;;;;;;;;;;20.24;37.99;102229.63;7278649;19;151817;-53
2022/02/27 09:47:58;;;;;;;;;;;;;;;20.24;38.14;102228.78;7284478;19;153749;-52
2022/02/27 09:50:25;;;;;;;;;;;;;;;20.21;38.38;102232.16;7280521;19;153279;-53
2022/02/27 09:52:53;;;;;;;;;;;;;;;20.19;38.11;102229.63;7285297;19;151658;-53
2022/02/27 09:55:20;;;;;;;;;;;;;;;20.18;38.27;102229.88;7282702;19;153265;-53
2022/02/27 09:57:47;;;;;;;;;;;;;;;20.17;37.96;102233.84;7283548;19;153956;-53
2022/02/27 10:00:16;;;;;;;;;;;;;;;20.20;38.30;102233.28;7280475;19;151997;-52
2022/02/27 10:02:52;;;;;;;;;;;;;;;20.20;38.11;102230.47;7289852;19;153026;-53
2022/02/27 10:05:23;;;;;;;;;;;;;;;20.23;38.50;102224.28;7280515;19;151785;-53
2022/02/27 10:08:00;;;;;;;;;;;;;;;20.23;38.74;102222.34;7282146;19;154066;-53
2022/02/27 10:10:28;;;;;;;;;;;;;;;20.26;38.50;102227.38;7279361;19;153756;-52
2022/02/27 10:12:55;;;;;;;;;;;;;;;20.23;37.69;102232.72;7284277;19;151490;-54
2022/02/27 10:15:22;;;;;;;;;;;;;;;20.24;37.03;102232.44;7284233;19;153363;-54
2022/02/27 10:17:55;;;;;;;;;;;;;;;20.26;36.99;102244.22;7280602;19;155010;-52
2022/02/27 10:20:25;;;;;;;;;;;;;;;20.28;36.69;102230.78;7282954;19;152047;-52
2022/02/27 10:22:53;;;;;;;;;;;;;;;20.33;36.81;102244.00;7281091;19;154560;-52
2022/02/27 10:25:22;;;;;;;;;;;;;;;20.36;36.47;102232.22;7287583;19;151576;-52
2022/02/27 10:27:52;;;;;;;;;;;;;;;20.38;35.91;102232.81;7281932;19;153061;-53
2022/02/27 10:30:19;;;;;;;;;;;;;;;20.39;35.70;102235.34;7282552;19;154097;-53
2022/02/27 10:32:48;;;;;;;;;;;;;;;20.42;35.75;102231.97;7282593;19;151925;-53
2022/02/27 10:35:24;;;;;;;;;;;;;;;20.46;35.77;102218.22;7283316;19;152780;-53
2022/02/27 10:37:51;;;;;;;;;;;;;;;20.48;35.61;102204.78;7279411;19;154111;-53
2022/02/27 10:40:29;;;;;;;;;;;;;;;20.51;35.85;102207.00;7280997;19;152099;-53
2022/02/27 10:42:57;;;;;;;;;;;;;;;20.54;35.78;102217.66;7280627;19;152870;-53
2022/02/27 10:45:24;;;;;;;;;;;;;;;20.58;35.38;102206.75;7285951;19;153252;-53
2022/02/27 10:48:02;;;;;;;;;;;;;;;20.61;35.78;102223.88;7282681;19;153576;-54
2022/02/27 10:50:29;;;;;;;;;;;;;;;20.64;35.42;102216.84;7281003;19;153650;-53
2022/02/27 10:52:56;;;;;;;;;;;;;;;20.67;35.52;102214.31;7279963;19;151990;-53
2022/02/27 10:55:24;;;;;;;;;;;;;;;20.68;35.49;102216.03;7282097;19;152769;-53
2022/02/27 10:57:52;;;;;;;;;;;;;;;20.72;35.32;102219.09;7281786;19;153997;-53
2022/02/27 11:00:19;;;;;;;;;;;;;;;20.74;35.24;102200.88;7279974;19;152005;-53
2022/02/27 11:02:47;;;;;;;;;;;;;;;20.72;33.19;102211.53;7281694;19;153416;-54
2022/02/27 11:05:16;;;;;;;;;;;;;;;20.36;29.14;102201.34;7276717;19;154255;-53
2022/02/27 11:07:44;;;;;;;;;;;;;;;20.16;28.98;102209.69;7288591;19;152061;-53
2022/02/27 11:10:12;;;;;;;;;;;;;;;20.43;29.97;102204.75;7278516;19;155504;-53
2022/02/27 11:12:40;;;;;;;;;;;;;;;20.54;30.47;102199.97;7281601;19;151698;-53
2022/02/27 11:15:10;;;;;;;;;;;;;;;20.63;31.66;102204.78;7280905;19;153743;-52
2022/02/27 11:17:42;;;;;;;;;;;;;;;20.71;31.68;102195.81;7278307;19;153467;-53
2022/02/27 11:20:10;;;;;;;;;;;;;;;20.76;31.74;102197.75;7281505;19;152099;-53
2022/02/27 11:22:37;;;;;;;;;;;;;;;20.82;32.31;102208.72;7280517;19;153497;-53
2022/02/27 11:25:08;;;;;;;;;;;;;;;20.89;31.85;102202.00;7280531;19;154265;-53
2022/02/27 11:27:37;;;;;;;;;;;;;;;20.94;32.60;102202.81;7279762;19;151767;-53
2022/02/27 11:30:05;;;;;;;;;;;;;;;21.01;32.52;102208.19;7287011;19;153553;-53
2022/02/27 11:32:33;;;;;;;;;;;;;;;21.06;32.78;102199.75;7278445;19;151597;-53
2022/02/27 11:35:00;;;;;;;;;;;;;;;21.09;32.18;102193.56;7280678;19;153345;-53
2022/02/27 11:37:36;;;;;;;;;;;;;;;21.12;32.68;102193.84;7277472;19;153830;-53
2022/02/27 11:42:50;;;;;;;;;;;;;;;21.21;32.63;102194.16;7282195;19;152913;-52
2022/02/27 11:45:18;;;;;;;;;;;;;;;21.24;32.88;102199.22;7277054;19;153497;-53
2022/02/27 11:47:48;;;;;;;;;;;;;;;21.27;32.72;102193.00;7281034;19;152177;-52
2022/02/27 11:50:26;;;;;;;;;;;;;;;21.30;32.76;102198.09;7279230;19;153424;-52
2022/02/27 11:52:53;;;;;;;;;;;;;;;21.33;32.67;102191.03;7285552;19;154257;-53
2022/02/27 11:55:30;;;;;;;;;;;;;;;21.34;32.75;102192.72;7280612;19;152966;-53
2022/02/27 11:57:58;;;;;;;;;;;;;;;21.36;32.67;102179.22;7280491;19;155268;-53
2022/02/27 12:00:39;;;;;;;;;;;;;;;21.37;32.83;102187.38;7279761;19;151830;-53
2022/02/27 12:03:18;;;;;;;;;;;;;;;21.38;32.98;102180.63;7280444;19;153701;-53
2022/02/27 12:05:45;;;;;;;;;;;;;;;21.40;32.83;102185.94;7278045;19;153587;-51
2022/02/27 12:08:14;;;;;;;;;;;;;;;21.41;33.31;102184.84;7279415;19;151908;-53
2022/02/27 12:10:45;;;;;;;;;;;;;;;21.40;32.98;102175.56;7278193;19;154222;-52
2022/02/27 12:13:16;;;;;;;;;;;;;;;21.42;33.27;102176.13;7279105;19;154502;-52
2022/02/27 12:15:43;;;;;;;;;;;;;;;21.41;33.38;102177.25;7288172;19;151775;-52
2022/02/27 12:18:11;;;;;;;;;;;;;;;21.41;33.75;102177.25;7277913;19;155802;-52
2022/02/27 12:20:40;;;;;;;;;;;;;;;21.40;33.40;102180.31;7279715;19;152053;-52
2022/02/27 12:23:12;;;;;;;;;;;;;;;21.40;33.69;102169.94;7276431;19;151824;-52
2022/02/27 12:25:43;;;;;;;;;;;;;;;21.41;33.42;102167.97;7277701;19;153544;-52
2022/02/27 12:28:33;;;;;;;;;;;;;;;21.40;33.85;102171.91;7277569;19;151787;-52
2022/02/27 12:31:00;;;;;;;;;;;;;;;21.38;33.87;102166.56;7277906;19;152779;-52
2022/02/27 12:33:27;;;;;;;;;;;;;;;21.39;33.73;102167.44;7278487;19;154250;-52
2022/02/27 12:35:54;;;;;;;;;;;;;;;21.39;34.19;102168.28;7288159;19;152230;-52
2022/02/27 12:38:24;;;;;;;;;;;;;;;21.38;33.51;102165.72;7277111;19;153770;-52